Time;durP1;ratioP1;P1;durP2;ratioP2;P2;SDS_P1;SDS_P2;PMS_P1;PMS_P2;Temp;Humidity;BMP_temperature;BMP_pressure;BME280_temperature;BME280_humidity;BME280_pressure;Samples;Min_cycle;Max_cycle;Signal;HPM_P1;HPM_P2
2022/10/06 00:00:35;;;;;;;5.40;1.30;;;;;;;14.01;78.24;101935.94;3580311;40;20064;-64
2022/10/06 00:03:01;;;;;;;8.13;1.77;;;;;;;13.96;77.91;101921.84;3579344;40;20056;-64
2022/10/06 00:05:28;;;;;;;7.68;2.03;;;;;;;14.08;77.61;101951.72;3578351;40;20369;-64
2022/10/06 00:07:54;;;;;;;9.18;1.63;;;;;;;14.08;78.48;101961.63;3578661;40;20071;-64
2022/10/06 00:10:20;;;;;;;7.72;1.92;;;;;;;14.06;78.79;101964.44;3576720;40;20064;-64
2022/10/06 00:12:50;;;;;;;10.75;3.08;;;;;;;13.38;78.76;101850.38;3574901;40;20051;-64
2022/10/06 00:15:21;;;;;;;6.60;1.60;;;;;;;14.02;78.96;101968.31;3578077;40;20122;-64
2022/10/06 00:17:48;;;;;;;9.50;1.67;;;;;;;14.04;78.97;101982.59;3581643;40;20059;-64
2022/10/06 00:20:14;;;;;;;9.90;2.13;;;;;;;14.05;79.17;101984.34;3577067;40;20090;-64
2022/10/06 00:22:45;;;;;;;8.05;1.85;;;;;;;14.00;79.49;101991.84;3578876;40;20101;-64
2022/10/06 00:25:15;;;;;;;8.30;1.90;;;;;;;13.33;79.35;101877.66;3577889;40;20068;-64
2022/10/06 00:27:46;;;;;;;4.30;1.27;;;;;;;14.01;79.16;101996.28;3577393;40;20060;-64
2022/10/06 00:30:24;;;;;;;10.52;1.58;;;;;;;13.54;79.52;101924.22;3580099;40;20048;-64
2022/10/06 00:32:56;;;;;;;9.57;1.90;;;;;;;13.94;79.72;102005.72;3576863;40;20626;-64
2022/10/06 00:35:24;;;;;;;4.03;1.67;;;;;;;13.94;79.87;102006.56;3580448;40;20477;-64
2022/10/06 00:37:54;;;;;;;4.68;1.75;;;;;;;13.31;79.23;101905.72;3580958;39;20291;-64
2022/10/06 00:40:21;;;;;;;7.70;1.80;;;;;;;13.90;79.40;102012.25;3580258;40;20072;-63
2022/10/06 00:42:56;;;;;;;9.52;1.83;;;;;;;13.89;79.22;102011.38;3574337;40;20052;-63
2022/10/06 00:45:36;;;;;;;6.47;1.75;;;;;;;13.88;78.97;102015.03;3578443;40;20974;-63
2022/10/06 00:48:13;;;;;;;12.13;1.92;;;;;;;13.87;78.52;102013.28;3576686;40;20052;-63
2022/10/06 00:50:40;;;;;;;7.88;1.60;;;;;;;13.83;78.54;102017.13;3577449;40;20057;-63
2022/10/06 00:53:07;;;;;;;7.28;2.08;;;;;;;13.83;78.30;102021.69;3574010;40;20060;-63
2022/10/06 00:55:33;;;;;;;6.57;1.70;;;;;;;13.82;78.02;102019.91;3576709;40;20061;-63
2022/10/06 00:58:00;;;;;;;6.97;1.70;;;;;;;13.80;78.14;102029.97;3576147;40;20065;-63
2022/10/06 01:00:27;;;;;;;7.57;1.90;;;;;;;13.81;77.85;102032.56;3579236;40;20134;-63
2022/10/06 01:03:16;;;;;;;8.32;2.00;;;;;;;13.76;77.70;102031.94;3575642;40;20088;-63
2022/10/06 01:05:50;;;;;;;7.72;1.75;;;;;;;13.78;77.73;102048.06;3584555;40;20059;-62
2022/10/06 01:08:17;;;;;;;11.15;2.10;;;;;;;13.72;77.45;102038.47;3578716;40;20056;-62
2022/10/06 01:10:43;;;;;;;6.22;1.95;;;;;;;12.63;77.40;101854.56;3582353;40;20048;-62
2022/10/06 01:13:12;;;;;;;13.98;2.05;;;;;;;13.69;76.89;102058.44;3580254;40;20056;-64
2022/10/06 01:15:52;;;;;;;7.88;2.05;;;;;;;13.69;76.65;102054.84;3576983;40;20069;-62
2022/10/06 01:18:25;;;;;;;5.30;1.92;;;;;;;13.69;76.24;102062.97;3579906;40;20064;-63
2022/10/06 01:21:06;;;;;;;6.10;1.90;;;;;;;13.66;76.25;102069.41;3580710;40;20044;-63
2022/10/06 01:23:34;;;;;;;7.15;2.05;;;;;;;13.63;75.95;102068.69;3581122;40;20060;-64
2022/10/06 01:26:09;;;;;;;8.10;2.10;;;;;;;13.04;75.70;101976.44;3579996;40;20314;-64
2022/10/06 01:28:38;;;;;;;7.35;1.75;;;;;;;13.67;76.08;102076.56;3575577;40;20072;-64
2022/10/06 01:31:07;;;;;;;9.13;2.10;;;;;;;13.62;76.04;102078.66;3577248;40;20045;-64
2022/10/06 01:33:32;;;;;;;7.75;1.88;;;;;;;13.00;75.83;101978.44;3580898;40;20064;-64
2022/10/06 01:35:58;;;;;;;5.88;1.80;;;;;;;13.63;75.76;102095.72;3578541;40;20068;-64
2022/10/06 01:38:24;;;;;;;8.38;1.70;;;;;;;13.55;75.78;102090.75;3580550;40;20116;-64
2022/10/06 01:40:52;;;;;;;7.75;1.83;;;;;;;13.50;75.60;102084.72;3580512;40;20084;-64
2022/10/06 01:43:18;;;;;;;8.32;1.63;;;;;;;13.56;75.68;102103.28;3579335;40;20049;-63
2022/10/06 01:45:44;;;;;;;8.98;1.70;;;;;;;13.53;75.03;102111.56;3580016;40;20052;-64
2022/10/06 01:48:09;;;;;;;8.70;1.98;;;;;;;13.53;74.98;102118.78;3577621;40;20055;-64
2022/10/06 01:50:35;;;;;;;7.88;1.75;;;;;;;13.49;74.74;102110.00;3580449;40;20058;-64
2022/10/06 01:53:01;;;;;;;6.53;1.75;;;;;;;13.47;74.66;102123.56;3577008;40;20068;-64
2022/10/06 01:55:26;;;;;;;12.60;2.15;;;;;;;13.45;74.52;102133.59;3577100;40;20433;-64
2022/10/06 01:57:52;;;;;;;11.75;1.90;;;;;;;13.44;74.38;102130.97;3576333;40;20051;-64
2022/10/06 02:00:18;;;;;;;7.82;2.13;;;;;;;13.41;74.31;102126.59;3576215;40;20492;-64
2022/10/06 02:02:44;;;;;;;6.45;1.90;;;;;;;13.35;74.34;102118.84;3574682;40;20045;-64
2022/10/06 02:05:11;;;;;;;11.20;2.15;;;;;;;13.42;74.11;102132.88;3574572;40;20288;-64
2022/10/06 02:07:37;;;;;;;9.80;1.60;;;;;;;13.37;74.30;102126.84;3573512;40;20049;-64
2022/10/06 02:10:05;;;;;;;10.57;2.00;;;;;;;13.31;73.89;102114.53;3574484;40;20463;-63
2022/10/06 02:12:31;;;;;;;10.23;2.17;;;;;;;13.37;73.99;102126.84;3574185;40;20644;-63
2022/10/06 02:14:58;;;;;;;9.60;2.13;;;;;;;13.35;74.51;102139.53;3574605;40;20084;-62
2022/10/06 02:17:24;;;;;;;13.18;3.28;;;;;;;12.55;74.08;102014.09;3574921;40;20068;-63
2022/10/06 02:19:49;;;;;;;10.45;2.50;;;;;;;13.29;74.13;102145.25;3576617;40;20096;-63
2022/10/06 02:22:15;;;;;;;8.68;2.15;;;;;;;13.15;74.44;102130.63;3577137;40;20053;-63
2022/10/06 02:24:41;;;;;;;13.07;2.17;;;;;;;13.24;74.18;102157.19;3575449;40;20048;-63
2022/10/06 02:27:07;;;;;;;6.22;1.67;;;;;;;13.24;74.63;102158.97;3576414;40;20056;-62
2022/10/06 02:29:33;;;;;;;9.25;2.15;;;;;;;13.19;74.94;102156.53;3578696;40;20383;-63
2022/10/06 02:31:59;;;;;;;9.30;2.35;;;;;;;13.22;75.16;102168.97;3577104;40;20093;-63
2022/10/06 02:34:25;;;;;;;8.60;2.13;;;;;;;13.21;75.02;102175.34;3585388;40;20064;-63
2022/10/06 02:36:51;;;;;;;12.45;2.33;;;;;;;13.20;75.02;102173.59;3578286;40;20129;-63
2022/10/06 02:39:16;;;;;;;13.57;2.15;;;;;;;12.45;74.86;102053.28;3579621;40;20064;-63
2022/10/06 02:41:42;;;;;;;9.63;2.25;;;;;;;12.73;75.27;102099.47;3578460;40;20064;-63
2022/10/06 02:44:07;;;;;;;12.40;2.10;;;;;;;12.65;75.17;102093.59;3580683;40;20415;-63
2022/10/06 02:46:33;;;;;;;10.15;2.22;;;;;;;13.14;75.34;102187.41;3580440;40;20052;-63
2022/10/06 02:48:59;;;;;;;8.40;1.75;;;;;;;13.13;75.40;102191.03;3582870;40;20095;-63
2022/10/06 02:51:24;;;;;;;10.35;2.42;;;;;;;13.12;75.13;102197.41;3587960;40;20048;-63
2022/10/06 02:53:50;;;;;;;9.63;2.08;;;;;;;13.09;75.69;102193.03;3580530;40;20063;-62
2022/10/06 02:56:21;;;;;;;7.57;1.77;;;;;;;13.07;75.59;102194.09;3579797;40;20063;-63
2022/10/06 02:58:48;;;;;;;11.50;2.47;;;;;;;13.06;75.63;102203.13;3579111;40;20056;-63
2022/10/06 03:01:25;;;;;;;9.15;1.95;;;;;;;13.01;75.47;102206.94;3580378;40;20314;-63
2022/10/06 03:03:52;;;;;;;10.10;2.08;;;;;;;12.99;76.08;102213.34;3580588;40;20052;-63
2022/10/06 03:06:22;;;;;;;15.15;2.30;;;;;;;12.96;76.02;102213.50;3581078;40;20062;-63
2022/10/06 03:08:58;;;;;;;10.45;1.92;;;;;;;12.92;76.19;102217.31;3579956;40;20048;-63
2022/10/06 03:11:30;;;;;;;9.35;2.13;;;;;;;12.89;76.02;102228.25;3580930;40;20052;-62
2022/10/06 03:13:56;;;;;;;14.95;2.42;;;;;;;12.86;76.04;102233.81;3576857;40;20057;-63
2022/10/06 03:16:29;;;;;;;12.35;2.20;;;;;;;12.06;76.16;102094.72;3580014;40;20149;-63
2022/10/06 03:18:55;;;;;;;17.27;2.40;;;;;;;12.63;76.17;102216.91;3580160;40;20057;-63
2022/10/06 03:21:32;;;;;;;12.48;2.30;;;;;;;12.77;76.38;102238.69;3580433;40;20053;-63
2022/10/06 03:23:59;;;;;;;9.45;2.22;;;;;;;12.75;76.55;102254.09;3577778;40;20053;-63
2022/10/06 03:26:31;;;;;;;9.88;1.80;;;;;;;12.71;76.10;102244.38;3580446;40;20379;-63
2022/10/06 03:28:56;;;;;;;11.20;2.42;;;;;;;11.92;76.26;102110.66;3580315;40;20129;-63
2022/10/06 03:31:24;;;;;;;9.80;2.05;;;;;;;12.67;76.23;102247.31;3588227;39;20060;-63
2022/10/06 03:33:51;;;;;;;12.00;2.45;;;;;;;12.65;76.24;102247.38;3582181;40;20056;-63
2022/10/06 03:36:22;;;;;;;10.32;2.17;;;;;;;12.61;76.23;102256.56;3580535;40;20049;-63
2022/10/06 03:38:48;;;;;;;8.73;2.10;;;;;;;12.61;76.32;102261.09;3580144;40;20307;-63
2022/10/06 03:41:19;;;;;;;11.15;2.08;;;;;;;11.95;75.77;102150.94;3581523;40;20054;-63
2022/10/06 03:43:48;;;;;;;10.13;2.50;;;;;;;12.55;76.40;102259.53;3581798;40;20053;-63
2022/10/06 03:46:19;;;;;;;10.45;2.05;;;;;;;12.53;76.25;102264.16;3580070;40;20100;-63
2022/10/06 03:48:47;;;;;;;7.93;2.28;;;;;;;12.49;76.57;102274.19;3580992;40;20092;-63
2022/10/06 03:51:16;;;;;;;8.63;1.95;;;;;;;12.43;76.13;102268.22;3580048;40;20088;-63
2022/10/06 03:53:49;;;;;;;7.75;1.80;;;;;;;12.45;75.86;102285.19;3579104;40;20051;-63
2022/10/06 03:56:24;;;;;;;15.25;2.47;;;;;;;12.41;75.91;102286.31;3580753;40;20141;-63
2022/10/06 03:58:54;;;;;;;8.85;2.33;;;;;;;11.99;76.28;102226.19;3579320;40;20044;-63
2022/10/06 04:01:28;;;;;;;10.90;2.28;;;;;;;12.35;76.40;102289.28;3581424;40;20089;-63
2022/10/06 04:03:56;;;;;;;10.32;2.60;;;;;;;12.32;76.58;102293.84;3579896;40;20107;-63
2022/10/06 04:06:24;;;;;;;9.50;2.17;;;;;;;12.29;76.21;102299.38;3581720;40;20500;-63
2022/10/06 04:08:52;;;;;;;8.40;1.92;;;;;;;11.46;76.21;102166.59;3580164;40;20084;-63
2022/10/06 04:11:25;;;;;;;12.38;2.78;;;;;;;12.24;76.19;102314.91;3579390;40;20061;-63
2022/10/06 04:13:56;;;;;;;9.07;2.00;;;;;;;11.64;75.85;102219.66;3578696;40;20048;-63
2022/10/06 04:16:55;;;;;;;11.88;2.45;;;;;;;11.74;76.09;102238.97;3580617;40;20048;-62
2022/10/06 04:19:21;;;;;;;12.80;2.17;;;;;;;12.15;76.32;102323.41;3579724;40;20071;-62
2022/10/06 04:21:47;;;;;;;14.43;2.83;;;;;;;12.07;76.21;102314.78;3578387;40;20377;-63
2022/10/06 04:24:13;;;;;;;10.60;2.75;;;;;;;11.58;75.83;102236.09;3579998;40;20089;-63
2022/10/06 04:26:45;;;;;;;10.80;2.25;;;;;;;12.13;75.96;102324.41;3579132;40;20076;-62
2022/10/06 04:29:12;;;;;;;11.15;2.28;;;;;;;11.63;75.57;102260.97;3580210;40;20064;-64
2022/10/06 04:31:39;;;;;;;9.57;2.55;;;;;;;12.09;75.39;102334.47;3578336;40;20074;-62
2022/10/06 04:34:06;;;;;;;13.07;2.83;;;;;;;11.55;75.59;102257.75;3579479;40;20098;-63
2022/10/06 04:36:39;;;;;;;14.07;2.70;;;;;;;12.07;75.54;102347.13;3578056;40;20052;-63
2022/10/06 04:39:09;;;;;;;9.35;2.67;;;;;;;12.05;75.91;102351.69;3578281;40;20059;-63
2022/10/06 04:41:38;;;;;;;9.48;2.45;;;;;;;12.03;75.42;102348.22;3576702;40;20115;-62
2022/10/06 04:44:05;;;;;;;8.82;2.45;;;;;;;12.00;75.74;102351.91;3578849;40;21816;-62
2022/10/06 04:46:33;;;;;;;15.20;2.40;;;;;;;12.01;75.40;102355.47;3578649;40;20048;-62
2022/10/06 04:48:59;;;;;;;17.45;3.25;;;;;;;11.39;75.62;102260.22;3578457;40;21598;-63
2022/10/06 04:51:27;;;;;;;11.05;2.70;;;;;;;11.96;75.36;102363.78;3579973;40;20051;-63
2022/10/06 04:53:53;;;;;;;16.13;3.10;;;;;;;11.93;75.82;102366.59;3578688;40;20057;-62
2022/10/06 04:56:24;;;;;;;14.35;2.65;;;;;;;11.87;76.17;102365.97;3582435;40;20087;-62
2022/10/06 04:58:53;;;;;;;16.90;2.60;;;;;;;11.78;76.17;102351.91;3579723;40;20059;-62
2022/10/06 05:01:26;;;;;;;15.07;3.13;;;;;;;11.81;76.11;102373.34;3580034;40;20068;-62
2022/10/06 05:03:55;;;;;;;13.80;3.20;;;;;;;11.76;76.51;102383.41;3578584;40;20068;-63
2022/10/06 05:06:24;;;;;;;12.63;2.67;;;;;;;11.71;76.54;102392.66;3581366;40;20064;-62
2022/10/06 05:08:57;;;;;;;15.57;3.10;;;;;;;11.67;76.67;102394.59;3581453;40;20044;-62
2022/10/06 05:11:24;;;;;;;13.82;2.88;;;;;;;11.03;76.37;102286.81;3580144;40;20122;-63
2022/10/06 05:13:53;;;;;;;14.38;3.45;;;;;;;11.68;75.98;102403.56;3579147;40;20107;-62
2022/10/06 05:16:21;;;;;;;13.32;3.08;;;;;;;11.66;76.10;102405.44;3581277;40;20078;-64
2022/10/06 05:18:47;;;;;;;17.48;3.38;;;;;;;11.63;76.01;102401.03;3581001;40;20384;-63
2022/10/06 05:21:17;;;;;;;12.75;2.70;;;;;;;11.58;76.30;102403.06;3582696;40;20052;-63
2022/10/06 05:23:44;;;;;;;13.45;3.03;;;;;;;10.96;76.26;102306.84;3582107;40;20103;-63
2022/10/06 05:26:14;;;;;;;13.93;3.28;;;;;;;11.57;76.03;102409.38;3584892;39;20316;-63
2022/10/06 05:28:40;;;;;;;11.80;2.75;;;;;;;11.01;76.19;102332.66;3577141;40;20064;-63
2022/10/06 05:31:19;;;;;;;12.25;2.50;;;;;;;11.53;76.60;102426.59;3578719;40;20052;-63
2022/10/06 05:33:44;;;;;;;11.07;2.70;;;;;;;11.52;76.48;102433.81;3577581;40;20064;-63
2022/10/06 05:36:23;;;;;;;14.90;2.70;;;;;;;11.49;76.58;102441.13;3580283;40;20403;-63
2022/10/06 05:38:49;;;;;;;11.75;2.60;;;;;;;11.47;76.15;102449.25;3579873;40;20048;-63
2022/10/06 05:41:20;;;;;;;14.18;3.85;;;;;;;11.48;76.50;102460.91;3579578;40;20418;-63
2022/10/06 05:43:46;;;;;;;11.85;2.67;;;;;;;11.46;76.50;102452.03;3580200;40;20384;-63
2022/10/06 05:46:19;;;;;;;16.63;3.28;;;;;;;11.43;76.31;102458.41;3578098;40;20056;-63
2022/10/06 05:48:51;;;;;;;13.88;3.53;;;;;;;11.37;75.82;102450.56;3578595;40;20053;-63
2022/10/06 05:51:19;;;;;;;14.82;3.10;;;;;;;11.37;75.83;102462.22;3578582;40;20093;-63
2022/10/06 05:53:46;;;;;;;17.75;3.13;;;;;;;11.33;76.38;102463.28;3577422;40;20059;-62
2022/10/06 05:56:20;;;;;;;24.60;3.50;;;;;;;11.33;75.84;102460.59;3573668;40;20055;-64
2022/10/06 05:58:49;;;;;;;12.82;2.97;;;;;;;11.33;76.81;102473.16;3578602;40;20064;-63
2022/10/06 06:01:29;;;;;;;14.43;3.15;;;;;;;11.33;76.35;102473.16;3577641;40;20185;-63
2022/10/06 06:03:59;;;;;;;15.13;3.20;;;;;;;11.03;76.53;102422.25;3579203;40;20056;-63
2022/10/06 06:06:29;;;;;;;14.93;3.50;;;;;;;11.33;75.82;102479.44;3583387;40;20064;-63
2022/10/06 06:09:08;;;;;;;15.15;3.10;;;;;;;11.31;76.05;102481.28;3578793;40;20052;-63
2022/10/06 06:11:38;;;;;;;20.02;3.47;;;;;;;11.26;76.00;102477.91;3578136;40;20096;-63
2022/10/06 06:14:07;;;;;;;12.32;2.92;;;;;;;11.21;76.19;102469.13;3578629;40;20084;-63
2022/10/06 06:16:35;;;;;;;14.20;2.97;;;;;;;10.18;76.63;102298.13;3577617;40;20142;-63
2022/10/06 06:19:02;;;;;;;14.57;2.70;;;;;;;11.35;76.16;102492.81;3575123;40;20063;-63
2022/10/06 06:21:28;;;;;;;17.67;3.80;;;;;;;11.26;76.18;102482.38;3575900;40;20060;-63
2022/10/06 06:23:54;;;;;;;17.85;3.60;;;;;;;10.78;76.33;102384.63;3577899;40;20395;-63
2022/10/06 06:26:24;;;;;;;17.17;3.33;;;;;;;11.43;75.61;102500.63;3579309;40;20422;-63
2022/10/06 06:28:53;;;;;;;11.68;3.25;;;;;;;11.40;75.81;102496.22;3577351;40;20064;-63
2022/10/06 06:31:25;;;;;;;16.50;3.53;;;;;;;11.49;75.50;102503.06;3585430;39;20059;-64
2022/10/06 06:33:54;;;;;;;13.80;3.00;;;;;;;11.51;75.18;102504.78;3575727;40;20342;-64
2022/10/06 06:36:39;;;;;;;13.55;2.95;;;;;;;11.54;75.29;102507.31;3579300;40;20058;-63
2022/10/06 06:39:09;;;;;;;15.05;3.13;;;;;;;11.53;75.62;102513.66;3576433;40;20218;-64
2022/10/06 06:41:38;;;;;;;15.07;3.53;;;;;;;11.56;75.17;102518.06;3578804;40;20048;-63
2022/10/06 06:44:12;;;;;;;16.70;3.10;;;;;;;11.58;75.29;102518.88;3577083;40;20106;-63
2022/10/06 06:46:47;;;;;;;20.58;5.82;;;;;;;11.58;74.83;102529.66;3577081;40;20055;-63
2022/10/06 06:49:15;;;;;;;14.65;3.20;;;;;;;11.51;75.05;102520.94;3576598;40;20374;-64
2022/10/06 06:51:48;;;;;;;16.48;3.25;;;;;;;10.89;74.73;102425.47;3576027;40;20053;-63
2022/10/06 06:54:15;;;;;;;15.80;3.75;;;;;;;10.95;75.08;102429.75;3577133;40;20310;-64
2022/10/06 06:56:41;;;;;;;12.90;3.08;;;;;;;11.00;74.98;102433.13;3577973;40;20063;-64
2022/10/06 06:59:10;;;;;;;12.98;2.90;;;;;;;11.66;75.54;102546.38;3578619;40;20065;-64
2022/10/06 07:01:44;;;;;;;15.13;3.22;;;;;;;11.71;74.33;102547.09;3576490;40;20060;-64
2022/10/06 07:04:12;;;;;;;16.58;3.00;;;;;;;11.73;74.40;102561.34;3578733;40;20053;-64
2022/10/06 07:06:40;;;;;;;8.80;2.63;;;;;;;11.69;74.91;102545.38;3577580;40;20064;-64
2022/10/06 07:09:07;;;;;;;18.90;4.07;;;;;;;11.85;74.82;102558.22;3578730;40;20149;-64
2022/10/06 07:11:39;;;;;;;14.25;3.20;;;;;;;11.93;73.80;102566.03;3575264;40;20143;-64
2022/10/06 07:14:11;;;;;;;22.17;3.70;;;;;;;11.99;74.29;102573.00;3576933;40;20059;-63
2022/10/06 07:25:06;;;;;;;17.58;3.78;;;;;;;12.50;72.35;102591.56;3578240;40;20122;-64
2022/10/06 07:27:45;;;;;;;17.23;2.92;;;;;;;12.59;72.01;102570.50;3577044;40;20085;-64
2022/10/06 07:30:21;;;;;;;17.50;3.05;;;;;;;12.88;71.46;102585.47;3576724;40;20064;-64
2022/10/06 07:32:50;;;;;;;18.45;3.80;;;;;;;13.08;70.74;102590.88;3579306;40;20056;-64
2022/10/06 07:35:19;;;;;;;17.65;3.67;;;;;;;13.27;70.00;102603.59;3580450;40;20134;-64
2022/10/06 07:37:46;;;;;;;17.02;2.97;;;;;;;13.47;69.66;102612.53;3581154;40;20064;-64
2022/10/06 07:40:13;;;;;;;14.23;3.17;;;;;;;13.11;68.83;102519.66;3581051;40;20060;-64
2022/10/06 07:42:52;;;;;;;15.35;3.72;;;;;;;13.85;68.71;102614.41;3581545;40;20060;-64
2022/10/06 07:45:44;;;;;;;17.00;2.97;;;;;;;14.03;67.39;102618.97;3581524;40;20076;-64
2022/10/06 07:48:17;;;;;;;13.65;3.20;;;;;;;14.16;66.64;102625.53;3579318;40;20055;-65
2022/10/06 07:50:47;;;;;;;12.18;2.50;;;;;;;14.31;66.66;102633.88;3576999;40;20056;-64
2022/10/06 07:53:16;;;;;;;16.23;3.78;;;;;;;14.46;66.01;102643.03;3578331;40;20071;-65
2022/10/06 07:55:45;;;;;;;17.67;3.50;;;;;;;14.67;65.61;102641.16;3581122;40;20080;-65
2022/10/06 07:58:18;;;;;;;15.38;3.42;;;;;;;14.77;65.04;102637.03;3580156;40;20371;-64
2022/10/06 08:00:47;;;;;;;15.70;3.80;;;;;;;14.88;64.39;102640.06;3576478;40;20052;-64
2022/10/06 08:03:16;;;;;;;9.07;2.47;;;;;;;14.99;64.41;102636.81;3579040;40;20582;-65
2022/10/06 08:05:44;;;;;;;14.23;3.30;;;;;;;15.14;63.73;102644.13;3575903;40;20344;-64
2022/10/06 08:08:10;;;;;;;10.57;3.10;;;;;;;14.56;63.27;102534.31;3575684;40;20053;-64
2022/10/06 08:10:35;;;;;;;14.30;3.92;;;;;;;14.73;63.13;102554.22;3575927;40;20044;-64
2022/10/06 08:13:05;;;;;;;12.88;3.28;;;;;;;15.44;62.97;102648.88;3579489;40;20057;-64
2022/10/06 08:15:30;;;;;;;24.48;7.13;;;;;;;15.62;62.68;102652.47;3579037;40;20276;-64
2022/10/06 08:17:59;;;;;;;14.18;3.33;;;;;;;15.70;61.75;102650.25;3581878;40;20063;-64
2022/10/06 08:20:26;;;;;;;13.45;3.00;;;;;;;15.88;61.15;102664.63;3579545;40;20050;-64
2022/10/06 08:22:53;;;;;;;12.68;3.58;;;;;;;15.43;61.04;102573.97;3578058;40;20449;-64
2022/10/06 08:25:19;;;;;;;10.98;2.97;;;;;;;15.62;60.79;102581.97;3579821;40;20052;-64
2022/10/06 08:27:45;;;;;;;12.55;2.80;;;;;;;16.19;60.68;102680.09;3577166;40;20132;-66
2022/10/06 08:30:12;;;;;;;11.63;3.20;;;;;;;16.34;60.52;102676.50;3579607;40;20358;-67
2022/10/06 08:32:41;;;;;;;16.30;3.63;;;;;;;16.50;60.07;102681.06;3577254;40;20146;-64
2022/10/06 08:35:09;;;;;;;15.32;3.17;;;;;;;16.63;59.96;102692.97;3577137;40;20060;-64
2022/10/06 08:37:35;;;;;;;15.00;3.30;;;;;;;16.79;59.40;102687.56;3578100;40;20094;-64
2022/10/06 08:40:01;;;;;;;13.23;3.30;;;;;;;16.40;59.77;102599.31;3577456;40;20395;-64
2022/10/06 08:42:41;;;;;;;12.52;3.10;;;;;;;17.07;58.02;102674.09;3578963;40;20363;-64
2022/10/06 08:45:41;;;;;;;11.48;2.88;;;;;;;17.36;57.01;102691.38;3576841;40;20327;-65
2022/10/06 08:48:28;;;;;;;11.18;2.92;;;;;;;16.77;56.74;102584.44;3577097;40;20066;-64
2022/10/06 08:51:18;;;;;;;14.35;3.17;;;;;;;17.53;56.64;102689.44;3578934;40;20052;-64
2022/10/06 08:54:04;;;;;;;12.77;3.00;;;;;;;17.57;55.84;102704.59;3578088;40;20307;-68
2022/10/06 08:56:53;;;;;;;12.88;2.72;;;;;;;17.68;55.28;102707.56;3580004;40;20059;-65
2022/10/06 08:59:20;;;;;;;11.25;3.00;;;;;;;17.76;55.46;102707.97;3577073;40;20076;-64
2022/10/06 09:01:50;;;;;;;12.95;2.90;;;;;;;17.37;55.81;102616.13;3581673;40;20158;-64
2022/10/06 09:04:29;;;;;;;10.95;3.08;;;;;;;18.02;54.90;102705.47;3578884;40;20056;-64
2022/10/06 09:07:20;;;;;;;13.27;2.90;;;;;;;18.18;54.93;102716.28;3577880;40;20052;-64
2022/10/06 09:10:16;;;;;;;12.15;3.10;;;;;;;17.71;54.56;102623.03;3576825;40;20380;-64
2022/10/06 09:13:10;;;;;;;11.88;2.60;;;;;;;18.40;53.87;102721.22;3580997;40;20128;-64
2022/10/06 09:15:49;;;;;;;11.93;2.88;;;;;;;18.51;53.99;102730.41;3581202;40;20068;-64
2022/10/06 09:18:18;;;;;;;13.38;2.83;;;;;;;18.69;53.11;102739.25;3574027;40;20388;-64
2022/10/06 09:20:56;;;;;;;9.45;2.92;;;;;;;18.88;52.42;102744.38;3575607;40;20087;-64
2022/10/06 09:26:27;;;;;;;8.23;2.65;;;;;;;19.04;51.77;102743.34;3582127;40;20425;-64
2022/10/06 09:28:55;;;;;;;14.90;3.20;;;;;;;19.20;51.26;102744.94;3580109;40;20264;-64
2022/10/06 09:31:27;;;;;;;10.63;2.97;;;;;;;19.36;52.28;102738.44;3581332;40;20051;-64
2022/10/06 09:34:00;;;;;;;8.05;2.50;;;;;;;19.48;50.76;102743.06;3578351;40;20060;-64
2022/10/06 09:36:26;;;;;;;22.40;4.07;;;;;;;19.52;50.81;102749.16;3579433;40;20056;-63
2022/10/06 09:38:55;;;;;;;10.55;2.60;;;;;;;19.53;50.61;102751.78;3574358;40;20291;-63
2022/10/06 09:41:38;;;;;;;11.13;2.65;;;;;;;19.51;49.50;102759.22;3581574;40;20068;-64
2022/10/06 09:44:23;;;;;;;11.52;2.47;;;;;;;19.56;49.28;102756.16;3579559;40;20087;-64
2022/10/06 09:46:49;;;;;;;7.80;2.00;;;;;;;18.99;49.70;102680.97;3579388;40;20095;-64
2022/10/06 09:49:26;;;;;;;9.43;2.42;;;;;;;19.40;49.30;102761.78;3581689;40;20122;-64
2022/10/06 09:52:07;;;;;;;10.40;2.40;;;;;;;19.36;49.89;102771.16;3581074;40;20643;-65
2022/10/06 09:54:33;;;;;;;14.38;2.80;;;;;;;19.25;49.10;102766.44;3580529;40;20052;-62
2022/10/06 09:57:25;;;;;;;8.05;2.20;;;;;;;19.06;49.78;102761.38;3583328;39;20442;-62
2022/10/06 09:59:51;;;;;;;12.40;2.42;;;;;;;19.13;50.97;102765.44;3579658;40;20314;-63
2022/10/06 10:02:35;;;;;;;9.43;2.15;;;;;;;19.29;49.77;102767.13;3578237;40;20138;-63
2022/10/06 10:05:06;;;;;;;7.68;2.40;;;;;;;19.33;49.76;102765.91;3577079;40;20061;-62
2022/10/06 10:07:35;;;;;;;9.25;3.00;;;;;;;19.37;48.08;102762.00;3579554;40;20060;-63
2022/10/06 10:10:23;;;;;;;10.73;2.30;;;;;;;19.51;48.70;102764.66;3580502;40;20111;-62
2022/10/06 10:12:58;;;;;;;8.60;2.10;;;;;;;19.77;47.86;102764.75;3574270;40;20059;-63
2022/10/06 10:15:52;;;;;;;10.45;2.28;;;;;;;19.90;46.77;102769.22;3576426;40;20100;-63
2022/10/06 10:18:25;;;;;;;8.23;1.75;;;;;;;19.98;47.19;102763.25;3581268;40;20367;-64
2022/10/06 10:21:05;;;;;;;10.00;2.08;;;;;;;19.99;46.62;102764.97;3581205;40;20068;-63
2022/10/06 10:23:41;;;;;;;13.63;2.03;;;;;;;20.13;45.45;102769.44;3571991;40;20106;-63
2022/10/06 10:26:37;;;;;;;9.23;2.10;;;;;;;20.29;46.71;102763.75;3577015;40;20079;-63
2022/10/06 10:29:40;;;;;;;6.18;1.92;;;;;;;20.55;44.35;102767.34;3577490;40;20056;-63
2022/10/06 10:32:46;;;;;;;7.43;2.00;;;;;;;19.64;44.67;102590.97;3576899;40;20288;-63
2022/10/06 10:35:36;;;;;;;7.78;2.42;;;;;;;20.97;42.18;102763.31;3578714;40;20117;-63
2022/10/06 10:38:20;;;;;;;6.97;1.90;;;;;;;21.19;43.42;102762.56;3575301;40;20312;-63
2022/10/06 10:41:03;;;;;;;8.13;2.15;;;;;;;20.86;42.44;102692.13;3577206;40;20049;-63
2022/10/06 10:43:34;;;;;;;6.53;1.85;;;;;;;21.49;41.08;102772.16;3577846;40;20048;-62
2022/10/06 10:46:30;;;;;;;6.50;1.95;;;;;;;21.63;40.55;102782.91;3574424;40;20399;-63
2022/10/06 10:49:17;;;;;;;5.07;1.83;;;;;;;21.76;40.03;102760.94;3571650;40;20052;-63
2022/10/06 10:51:59;;;;;;;28.77;9.50;;;;;;;21.77;39.74;102763.53;3582326;39;20059;-63
2022/10/06 10:55:02;;;;;;;7.23;1.73;;;;;;;21.80;40.79;102762.41;3575159;40;20056;-63
2022/10/06 10:57:39;;;;;;;6.50;2.00;;;;;;;21.89;41.34;102761.69;3575954;40;20044;-63
2022/10/06 11:00:14;;;;;;;9.15;2.20;;;;;;;21.40;39.92;102657.94;3576260;40;20084;-63
2022/10/06 11:02:40;;;;;;;18.10;7.38;;;;;;;21.46;39.88;102638.31;3578094;40;20161;-63
2022/10/06 11:05:29;;;;;;;17.58;5.43;;;;;;;22.29;40.39;102777.69;3578517;40;20052;-64
2022/10/06 11:08:35;;;;;;;6.75;2.10;;;;;;;22.45;39.36;102767.25;3579621;40;20052;-63
2022/10/06 11:11:14;;;;;;;7.13;2.05;;;;;;;22.51;39.62;102767.75;3578980;40;20493;-63
2022/10/06 11:13:54;;;;;;;7.35;2.20;;;;;;;21.94;37.86;102660.84;3577815;40;20249;-64
2022/10/06 11:16:57;;;;;;;5.97;1.83;;;;;;;22.54;37.90;102778.44;3578577;40;20578;-63
2022/10/06 11:19:55;;;;;;;7.00;1.92;;;;;;;22.42;38.34;102769.34;3576667;40;20057;-63
2022/10/06 11:22:31;;;;;;;9.00;2.47;;;;;;;22.48;38.95;102772.47;3578963;40;20060;-63
2022/10/06 11:25:32;;;;;;;6.03;1.80;;;;;;;22.63;38.89;102775.81;3580906;40;20067;-63
2022/10/06 11:28:21;;;;;;;7.72;1.80;;;;;;;22.32;38.66;102699.88;3587910;40;20056;-63
2022/10/06 11:31:23;;;;;;;8.07;2.17;;;;;;;22.28;38.19;102658.16;3585105;39;20099;-65
2022/10/06 11:33:58;;;;;;;5.53;2.17;;;;;;;23.10;38.22;102775.66;3584382;40;20061;-64
2022/10/06 11:36:50;;;;;;;8.00;2.25;;;;;;;22.44;38.17;102676.94;3579189;39;20425;-64
2022/10/06 11:39:19;;;;;;;8.32;1.77;;;;;;;23.13;36.98;102775.38;3584248;40;20125;-64
2022/10/06 11:42:27;;;;;;;7.28;2.05;;;;;;;23.21;37.20;102761.00;3577890;40;20536;-64
2022/10/06 11:45:02;;;;;;;7.45;1.92;;;;;;;23.25;36.32;102730.44;3580271;40;20161;-64
2022/10/06 11:47:53;;;;;;;6.25;1.60;;;;;;;23.48;36.29;102780.63;3575657;40;20048;-64
2022/10/06 11:50:33;;;;;;;7.30;2.10;;;;;;;23.49;36.60;102759.53;3574546;40;20083;-64
2022/10/06 11:52:59;;;;;;;5.30;1.90;;;;;;;23.81;36.45;102776.84;3581490;40;20049;-64
2022/10/06 11:55:27;;;;;;;7.70;2.00;;;;;;;23.91;36.02;102756.81;3579600;40;20056;-65